Airfield :
LOGIN :

Register | Disclaimer

   EN    FR    IT 

 










Legend :    VFR   Marginal VFR   IFR   Intensive IFR   Very Intensive IFR
Visi :
Ceiling :
>= 8 km
>= 3000ft
5 to 8 km
1000 to 3000 ft
1500m to 5 km
500 to 1000 ft
800 to 1500m
200 to 500 ft
< 800m
< 200 ft
Symbols :   Thunderstorms  Fog  Heavy snow  Heavy precipitations  Wind > 20 kt
SIGMETs :     Misc.  Thunderstorms  Icing  Turbulence  Mountain Waves  Volcanic Ashes







- Airport Elevation : 83 ft
- IATA code : LHR
- Download approach charts


EGLL - London Heathrow

CURRENT METAR :
  • 160150Z AUTO 23012KT 9999 BKN018 OVC023 19/15 Q1014

EXPIRED METARs :
  • 160120Z AUTO 22013KT 9999 SCT021 BKN026 BKN030 19/15 Q1014
  • 160050Z AUTO 21009KT 9999 BKN030 18/15 Q1014
  • 160020Z AUTO 21009KT 9999 BKN034 18/15 Q1015 NOSIG
  • 152350Z AUTO 21009KT 9999 OVC029 19/15 Q1015 NOSIG
  • 152320Z AUTO 21010KT 9999 OVC027 18/15 Q1015 NOSIG

TAF AMD TAF EGLL
Valid from the 16 at 01:00 until the 17 at 06:00 UTC


160128Z 1601/1706 21012KT 9999 BKN025
TEMPO 1606/1613 6000 RA BKN012
PROB40
TEMPO 1607/1613 3000 +RA BKN008
BECMG 1612/1615 27008KT
PROB30 1702/1706 7000
No reported NOTAMs for that airfield.



MET'MAP, your aeronautical weather chart ! - Copyright ORBIFLY December 2007 - Disclaimer

ORBIFLY MET'MAP TEAM :

Programming & Development : Alexandra Zaïnal
Concept & Development : Baudouin d'Aumeries
Co-Development & Prog : Marc-Olivier Méhu
Technical & hardware support : Manuel Goepfert

Contact : metmap@orbifly.com




SOURCES & CREDITS :

   NOAA